Time;durP1;ratioP1;P1;durP2;ratioP2;P2;SDS_P1;SDS_P2;PMS_P1;PMS_P2;Temp;Humidity;BMP_temperature;BMP_pressure;BME280_temperature;BME280_humidity;BME280_pressure;Samples;Min_cycle;Max_cycle;Signal;HPM_P1;HPM_P2
2022/05/21 00:03:06;;;;;;;6.60;3.80;;;;;;;19.74;71.24;97243.59;10494712;28;20032;-21
2022/05/21 00:08:08;;;;;;;11.10;3.60;;;;;;;19.73;71.19;97241.91;10455128;28;20495;-21
2022/05/21 00:13:09;;;;;;;8.02;3.50;;;;;;;19.72;70.88;97237.66;10492597;28;20039;-21
2022/05/21 00:18:09;;;;;;;5.97;3.60;;;;;;;19.69;71.01;97235.97;10491889;28;20033;-21
2022/05/21 00:23:19;;;;;;;6.10;3.75;;;;;;;19.68;70.90;97243.59;10454564;28;20061;-20
2022/05/21 00:28:19;;;;;;;6.15;3.95;;;;;;;19.68;70.83;97248.69;10491914;28;20025;-21
2022/05/21 00:33:20;;;;;;;7.50;3.77;;;;;;;19.66;70.58;97252.91;10483274;28;20037;-21
2022/05/21 00:38:21;;;;;;;5.43;3.03;;;;;;;19.57;70.06;97247.75;10453724;28;20442;-20
2022/05/21 00:43:39;;;;;;;3.33;2.65;;;;;;;19.64;69.99;97267.28;10453453;28;20090;-21
2022/05/21 00:48:40;;;;;;;3.70;2.95;;;;;;;19.65;69.60;97268.97;10462823;28;20040;-21
2022/05/21 00:53:43;;;;;;;4.05;2.75;;;;;;;19.67;69.45;97270.69;10492594;28;20083;-20
2022/05/21 01:04:04;;;;;;;3.00;2.58;;;;;;;19.60;68.45;97276.56;10452660;28;20084;-21
2022/05/21 01:09:05;;;;;;;4.00;2.50;;;;;;;19.57;68.07;97273.16;10452314;28;20102;-21
2022/05/21 01:14:09;;;;;;;4.25;2.22;;;;;;;19.55;67.98;97272.31;10451653;28;20033;-21
2022/05/21 01:19:09;;;;;;;3.10;2.35;;;;;;;19.54;68.11;97280.78;10451603;28;20037;-20
2022/05/21 01:24:11;;;;;;;4.80;2.30;;;;;;;19.53;67.98;97286.72;10451472;28;20037;-21
2022/05/21 01:29:20;;;;;;;3.47;2.13;;;;;;;19.51;68.31;97285.84;10460855;28;20035;-21
2022/05/21 01:34:21;;;;;;;5.00;2.25;;;;;;;19.50;68.30;97279.09;10484614;28;20029;-21
2022/05/21 01:39:22;;;;;;;2.15;1.90;;;;;;;19.50;68.17;97276.53;10450737;28;20071;-21
2022/05/21 01:44:40;;;;;;;2.30;1.83;;;;;;;19.51;68.00;97276.53;10450445;28;20083;-21
2022/05/21 01:49:41;;;;;;;4.30;1.80;;;;;;;19.53;67.71;97274.88;10473467;28;20481;-21
2022/05/21 01:54:42;;;;;;;4.72;2.35;;;;;;;19.53;67.88;97294.34;10490756;28;20041;-21
2022/05/21 01:59:42;;;;;;;2.60;1.90;;;;;;;19.49;68.04;97302.78;10491957;28;20036;-22
2022/05/21 02:04:42;;;;;;;4.53;1.77;;;;;;;19.48;67.95;97301.06;10466699;28;20059;-22
2022/05/21 02:09:43;;;;;;;1.93;1.67;;;;;;;19.45;67.57;97298.53;10450844;28;20024;-22
2022/05/21 02:14:43;;;;;;;1.97;1.60;;;;;;;19.37;67.86;97274.78;10449988;28;20283;-21
2022/05/21 02:19:44;;;;;;;4.95;2.03;;;;;;;19.45;67.98;97285.81;10471231;28;20036;-22
2022/05/21 02:24:44;;;;;;;3.27;2.23;;;;;;;19.42;68.29;97286.66;10480884;28;20041;-21
2022/05/21 02:29:45;;;;;;;4.10;1.73;;;;;;;19.40;68.05;97283.25;10464075;28;20029;-21
2022/05/21 02:34:46;;;;;;;4.55;1.48;;;;;;;19.44;67.77;97284.13;10489950;28;20301;-22
2022/05/21 02:39:47;;;;;;;4.37;2.00;;;;;;;19.45;67.61;97284.16;10481050;28;20043;-22
2022/05/21 02:44:47;;;;;;;3.25;1.40;;;;;;;19.42;67.45;97285.81;10449238;28;20033;-22
2022/05/21 02:49:48;;;;;;;1.83;1.60;;;;;;;19.42;67.80;97294.25;10451846;28;20040;-22
2022/05/21 02:54:48;;;;;;;2.57;1.70;;;;;;;19.38;67.54;97289.16;10459361;28;20553;-21
2022/05/21 02:59:50;;;;;;;2.00;1.80;;;;;;;19.35;67.53;97294.25;10457262;28;20294;-22
2022/05/21 03:04:50;;;;;;;3.22;1.63;;;;;;;19.33;66.96;97299.28;10455650;28;20087;-21
2022/05/21 03:15:10;;;;;;;2.55;1.70;;;;;;;19.31;67.28;97298.44;10462185;28;20033;-22
2022/05/21 03:20:13;;;;;;;3.10;1.57;;;;;;;19.31;67.19;97297.59;10457374;28;20040;-21
2022/05/21 03:25:15;;;;;;;3.92;1.80;;;;;;;19.28;67.20;97297.56;10457103;28;20039;-22
2022/05/21 03:30:18;;;;;;;3.83;1.52;;;;;;;19.33;66.83;97295.94;10474830;28;20123;-21
2022/05/21 03:35:20;;;;;;;2.65;1.50;;;;;;;19.33;67.03;97304.38;10465343;28;20032;-22
2022/05/21 03:40:25;;;;;;;2.63;1.42;;;;;;;19.31;67.10;97300.13;10456617;28;20487;-22
2022/05/21 03:45:26;;;;;;;1.67;1.52;;;;;;;19.27;67.14;97306.88;10455993;28;20070;-22
2022/05/21 03:50:27;;;;;;;3.53;2.00;;;;;;;19.23;66.97;97310.25;10455869;28;20032;-21
2022/05/21 03:55:30;;;;;;;2.80;1.60;;;;;;;19.19;66.96;97308.50;10457592;28;20581;-22
2022/05/21 04:00:32;;;;;;;1.42;1.33;;;;;;;19.25;66.93;97322.97;10455622;28;20107;-23
2022/05/21 04:05:33;;;;;;;2.10;1.35;;;;;;;19.22;66.98;97328.00;10454755;28;20045;-23
2022/05/21 04:10:33;;;;;;;6.83;1.43;;;;;;;19.23;66.81;97333.09;10454762;28;20033;-22
2022/05/21 04:15:34;;;;;;;4.75;1.63;;;;;;;19.25;66.57;97328.03;10454530;28;20111;-24
2022/05/21 04:20:35;;;;;;;2.63;2.20;;;;;;;19.24;66.43;97327.16;10454245;28;20503;-24
2022/05/21 04:25:36;;;;;;;3.95;1.60;;;;;;;19.27;66.24;97339.03;10455008;28;20037;-22
2022/05/21 04:30:36;;;;;;;3.85;1.60;;;;;;;19.24;66.21;97333.94;10475159;28;20497;-21
2022/05/21 04:40:55;;;;;;;4.95;1.35;;;;;;;19.17;65.50;97330.47;10475272;28;20029;-22
2022/05/21 04:45:56;;;;;;;4.93;1.30;;;;;;;19.18;65.87;97341.47;10452571;28;20037;-21
2022/05/21 04:51:02;;;;;;;4.47;1.50;;;;;;;19.16;65.91;97340.63;10485306;28;20462;-21
2022/05/21 04:56:03;;;;;;;2.10;1.23;;;;;;;19.12;65.91;97336.34;10472402;28;20431;-21
2022/05/21 05:01:05;;;;;;;3.88;1.52;;;;;;;19.14;65.90;97342.28;10452423;28;20479;-22
2022/05/21 05:06:06;;;;;;;3.65;1.33;;;;;;;19.12;65.79;97347.38;10477251;28;20037;-21
2022/05/21 05:11:06;;;;;;;2.65;1.23;;;;;;;19.19;65.40;97349.13;10472428;28;20039;-22
2022/05/21 05:16:06;;;;;;;4.73;1.63;;;;;;;19.33;64.74;97342.47;10470383;28;20032;-21
2022/05/21 05:21:07;;;;;;;4.73;1.40;;;;;;;19.34;64.72;97345.88;10471336;28;20446;-21
2022/05/21 05:26:08;;;;;;;6.95;1.67;;;;;;;19.29;64.84;97338.22;10471336;28;20513;-21
2022/05/21 05:31:08;;;;;;;2.20;1.33;;;;;;;19.25;64.87;97333.09;10471586;28;20407;-22
2022/05/21 05:36:09;;;;;;;1.93;1.60;;;;;;;19.29;64.68;97332.28;10463497;28;20029;-21
2022/05/21 05:41:10;;;;;;;5.20;1.80;;;;;;;19.27;65.06;97339.03;10451159;28;20052;-22
2022/05/21 05:46:10;;;;;;;3.20;1.33;;;;;;;19.42;65.07;97344.22;10451114;28;20040;-22
2022/05/21 05:51:11;;;;;;;2.03;1.60;;;;;;;18.62;66.60;97340.16;10451422;28;20841;-22
2022/05/21 05:56:13;;;;;;;5.95;2.30;;;;;;;18.39;68.21;97339.09;10453049;28;20561;-21
2022/05/21 06:01:13;;;;;;;5.45;2.05;;;;;;;18.32;68.31;97339.88;10450565;28;20043;-23
2022/05/21 06:06:14;;;;;;;2.42;2.13;;;;;;;18.23;68.37;97342.25;10449989;28;20055;-22
2022/05/21 06:11:16;;;;;;;2.70;2.25;;;;;;;18.15;68.68;97343.88;10449755;28;20025;-22
2022/05/21 06:16:16;;;;;;;4.47;2.22;;;;;;;18.12;68.59;97347.22;10449584;28;20063;-22
2022/05/21 06:21:17;;;;;;;3.37;1.83;;;;;;;18.08;67.61;97344.66;10449861;28;20314;-23
2022/05/21 06:26:18;;;;;;;3.83;1.70;;;;;;;18.05;67.98;97342.06;10470989;28;20360;-22
2022/05/21 06:31:19;;;;;;;4.20;2.35;;;;;;;18.08;68.26;97347.19;10491066;28;20048;-22
2022/05/21 06:36:19;;;;;;;3.63;2.10;;;;;;;18.02;68.62;97347.09;10451203;28;20518;-22
2022/05/21 06:41:20;;;;;;;2.42;1.80;;;;;;;18.09;67.90;97359.00;10449566;28;20044;-23
2022/05/21 06:46:20;;;;;;;3.90;2.07;;;;;;;18.02;68.84;97357.22;10474200;28;20025;-23
2022/05/21 06:51:20;;;;;;;10.23;1.83;;;;;;;19.05;64.99;97348.16;10444789;28;20567;-25
2022/05/21 06:56:21;;;;;;;5.50;1.75;;;;;;;19.43;63.79;97354.38;10473397;28;20295;-22
2022/05/21 07:01:21;;;;;;;1.93;1.60;;;;;;;19.11;64.85;97360.03;10490517;28;20037;-22
2022/05/21 07:11:41;;;;;;;1.80;1.20;;;;;;;19.26;63.84;97360.19;10464023;28;20029;-22
2022/05/21 07:16:41;;;;;;;2.03;1.50;;;;;;;19.28;62.93;97350.88;10457093;28;20044;-22
2022/05/21 07:21:41;;;;;;;3.17;1.07;;;;;;;19.30;61.82;97349.19;10487080;28;20758;-21
2022/05/21 07:26:46;;;;;;;3.50;1.10;;;;;;;19.25;62.84;97348.34;10465949;28;20024;-21
2022/05/21 07:31:46;;;;;;;2.53;1.25;;;;;;;19.22;62.60;97351.69;10477126;28;20090;-22
2022/05/21 07:36:47;;;;;;;2.97;1.10;;;;;;;19.18;62.76;97347.41;10476006;28;20514;-22
2022/05/21 07:41:47;;;;;;;1.75;1.30;;;;;;;19.10;62.54;97338.88;10455489;28;20063;-22
2022/05/21 07:46:47;;;;;;;5.67;1.03;;;;;;;19.12;62.41;97346.50;10455459;28;20036;-23
2022/05/21 07:51:48;;;;;;;4.97;1.00;;;;;;;19.16;62.43;97338.94;10456053;28;20028;-24
2022/05/21 07:56:48;;;;;;;1.03;0.90;;;;;;;19.19;62.22;97341.50;10458284;28;20037;-23
2022/05/21 08:01:49;;;;;;;1.58;1.05;;;;;;;19.44;61.60;97324.75;10455632;28;20045;-23
2022/05/21 08:06:50;;;;;;;3.20;1.03;;;;;;;19.43;61.83;97323.06;10454666;28;20403;-22
2022/05/21 08:11:50;;;;;;;3.57;1.00;;;;;;;19.38;61.96;97329.78;10454572;28;20299;-23
2022/05/21 08:16:51;;;;;;;1.90;0.90;;;;;;;19.23;61.99;97317.00;10454673;28;20039;-23
2022/05/21 08:21:52;;;;;;;2.20;0.98;;;;;;;19.13;61.87;97305.91;10454644;28;20384;-22
2022/05/21 08:27:02;;;;;;;2.60;1.00;;;;;;;19.16;61.59;97325.41;10454152;28;20048;-23
2022/05/21 08:32:04;;;;;;;0.93;0.80;;;;;;;19.09;61.41;97321.13;10485440;28;20036;-22
2022/05/21 08:37:04;;;;;;;1.25;0.80;;;;;;;19.03;60.81;97321.94;10454296;28;20170;-24
2022/05/21 08:42:13;;;;;;;0.87;0.60;;;;;;;19.14;60.03;97327.06;10453942;28;20078;-24
2022/05/21 08:47:44;;;;;;;1.17;0.77;;;;;;;19.08;59.74;97324.50;10452114;28;20041;-23
2022/05/21 08:53:05;;;;;;;2.60;0.95;;;;;;;19.13;60.43;97315.22;10452822;28;20033;-23
2022/05/21 08:58:32;;;;;;;1.45;0.77;;;;;;;19.46;59.90;97312.91;10456097;28;20040;-22
2022/05/21 09:03:32;;;;;;;0.68;0.63;;;;;;;19.40;59.40;97305.25;10467699;28;20029;-24
2022/05/21 09:08:40;;;;;;;0.98;0.80;;;;;;;19.35;59.62;97299.31;10493431;28;20052;-24
2022/05/21 09:14:06;;;;;;;1.20;0.80;;;;;;;19.20;59.96;97295.00;10452870;28;20037;-23
2022/05/21 09:19:10;;;;;;;2.00;0.70;;;;;;;19.52;59.67;97282.47;10452603;28;20048;-21
2022/05/21 09:24:38;;;;;;;1.23;0.73;;;;;;;19.28;59.55;97285.75;10451462;28;20419;-22
2022/05/21 09:29:39;;;;;;;1.30;0.75;;;;;;;19.21;59.90;97281.47;10464661;28;20388;-25
2022/05/21 09:34:39;;;;;;;0.80;0.60;;;;;;;19.29;59.69;97296.72;10474097;28;20033;-23
2022/05/21 09:39:41;;;;;;;3.30;0.97;;;;;;;19.42;59.00;97275.66;10451435;28;20043;-23
2022/05/21 09:50:10;;;;;;;2.45;0.68;;;;;;;19.59;58.84;97276.59;10450979;28;20471;-21
2022/05/21 09:55:29;;;;;;;2.07;0.77;;;;;;;19.64;58.61;97270.69;10453380;28;20114;-22
2022/05/21 10:00:35;;;;;;;1.00;0.60;;;;;;;19.44;59.08;97276.50;10450952;28;20487;-22
2022/05/21 10:05:45;;;;;;;1.53;0.90;;;;;;;19.31;59.49;97272.19;10450559;28;20028;-22
2022/05/21 10:10:59;;;;;;;0.75;0.50;;;;;;;19.35;59.32;97263.78;10450555;28;20025;-23
2022/05/21 10:16:40;;;;;;;1.88;0.60;;;;;;;19.47;58.73;97248.56;10450155;28;20551;-22
2022/05/21 10:22:02;;;;;;;2.40;0.80;;;;;;;19.31;58.81;97252.75;10450165;28;20025;-22
2022/05/21 10:27:12;;;;;;;1.58;0.75;;;;;;;19.38;58.77;97249.41;10449267;28;20483;-22
2022/05/21 10:32:26;;;;;;;1.40;0.77;;;;;;;19.40;59.12;97242.63;10483637;28;20093;-23
2022/05/21 10:37:32;;;;;;;1.00;0.70;;;;;;;19.57;58.17;97241.00;10450963;28;20044;-23
2022/05/21 10:43:06;;;;;;;0.80;0.60;;;;;;;19.49;58.90;97236.75;10449064;28;20399;-22
2022/05/21 10:48:44;;;;;;;1.45;0.55;;;;;;;19.80;58.67;97251.25;10449677;28;20071;-22
2022/05/21 10:54:12;;;;;;;1.05;0.80;;;;;;;19.96;59.66;97225.03;10452292;28;20116;-21
2022/05/21 10:59:38;;;;;;;0.50;0.40;;;;;;;19.91;58.17;97229.28;10449646;28;20028;-22
2022/05/21 11:05:02;;;;;;;0.95;0.70;;;;;;;19.81;58.47;97230.06;10448636;28;20407;-22
2022/05/21 11:10:24;;;;;;;1.13;0.70;;;;;;;19.59;58.96;97236.78;10450772;28;20116;-21
2022/05/21 11:15:34;;;;;;;1.08;0.55;;;;;;;19.57;59.17;97233.38;10456879;28;20029;-23
2022/05/21 11:20:43;;;;;;;0.63;0.63;;;;;;;19.54;59.13;97228.31;10459166;28;20517;-22
2022/05/21 11:25:52;;;;;;;0.77;0.40;;;;;;;19.63;58.94;97230.88;10458570;28;20036;-22
2022/05/21 11:30:57;;;;;;;0.57;0.50;;;;;;;19.65;58.85;97238.47;10482707;28;20059;-22
2022/05/21 11:41:29;;;;;;;0.63;0.50;;;;;;;19.63;58.26;97230.03;10459506;28;20040;-23
2022/05/21 11:46:38;;;;;;;1.63;0.75;;;;;;;19.64;57.61;97224.09;10458081;28;20033;-22
2022/05/21 11:51:38;;;;;;;0.57;0.50;;;;;;;19.61;58.30;97217.31;10458060;28;20485;-22
2022/05/21 11:57:02;;;;;;;0.47;0.47;;;;;;;19.53;58.64;97218.13;10459730;28;20428;-22
2022/05/21 12:02:24;;;;;;;0.88;0.50;;;;;;;19.52;58.40;97216.44;10457564;28;20103;-22
2022/05/21 12:07:43;;;;;;;1.52;0.60;;;;;;;19.51;58.52;97214.75;10457914;28;20377;-21
2022/05/21 12:13:05;;;;;;;0.90;0.50;;;;;;;19.54;57.96;97209.66;10491595;28;20042;-22
2022/05/21 12:18:35;;;;;;;2.05;0.28;;;;;;;19.49;57.11;97207.13;10484616;28;20041;-22
2022/05/21 12:23:35;;;;;;;0.50;0.50;;;;;;;19.40;58.76;97201.13;10455919;28;20041;-23
2022/05/21 12:29:10;;;;;;;0.55;0.47;;;;;;;19.47;57.84;97198.66;10497382;28;20058;-22
2022/05/21 12:34:22;;;;;;;0.57;0.40;;;;;;;19.82;57.29;97201.28;10496510;28;20036;-22
2022/05/21 12:39:32;;;;;;;0.40;0.40;;;;;;;19.64;57.78;97198.69;10491021;28;20112;-22
2022/05/21 12:44:39;;;;;;;0.55;0.40;;;;;;;19.72;56.25;97202.97;10453279;28;20064;-22
2022/05/21 12:49:49;;;;;;;0.45;0.40;;;;;;;19.53;56.09;97202.91;10462654;28;20033;-22
2022/05/21 12:54:49;;;;;;;0.70;0.50;;;;;;;19.58;57.34;97201.22;10492854;28;20035;-22
2022/05/21 13:00:04;;;;;;;0.57;0.50;;;;;;;19.51;58.43;97199.50;10495259;28;20537;-22
2022/05/21 13:05:04;;;;;;;0.95;0.77;;;;;;;19.42;57.47;97204.56;10469279;28;20120;-21
2022/05/21 13:10:22;;;;;;;1.23;0.77;;;;;;;19.53;56.87;97192.75;10464862;28;20115;-23
2022/05/21 13:15:29;;;;;;;0.70;0.63;;;;;;;19.54;56.61;97200.38;10493807;28;20036;-23
2022/05/21 13:20:39;;;;;;;;;;;;;;;19.58;56.59;97196.16;10475755;28;20029;-22
2022/05/21 13:25:40;;;;;;;1.55;0.70;;;;;;;19.62;56.81;97187.69;10452401;28;19947;-23
2022/05/21 13:30:47;;;;;;;1.02;0.77;;;;;;;19.65;56.64;97190.22;10473319;28;20119;-22
2022/05/21 13:35:47;;;;;;;0.70;0.60;;;;;;;19.71;56.89;97177.53;10491295;28;20040;-22
2022/05/21 13:40:50;;;;;;;1.87;1.10;;;;;;;19.64;57.05;97173.28;10474108;28;20040;-23
2022/05/21 13:45:57;;;;;;;1.25;0.80;;;;;;;19.63;57.53;97171.59;10450979;28;20106;-21
2022/05/21 13:50:57;;;;;;;1.60;1.20;;;;;;;19.65;57.01;97167.38;10451007;28;20024;-22
2022/05/21 13:56:01;;;;;;;0.90;0.83;;;;;;;19.65;57.14;97162.28;10453183;28;20044;-22
2022/05/21 14:01:21;;;;;;;1.45;1.10;;;;;;;19.47;57.78;97158.00;10450532;28;20345;-24
2022/05/21 14:06:23;;;;;;;1.55;0.98;;;;;;;19.65;56.86;97137.75;10450796;28;20036;-22
2022/05/21 14:11:26;;;;;;;1.33;0.85;;;;;;;19.82;57.02;97145.38;10450641;28;20044;-21
2022/05/21 14:16:38;;;;;;;0.90;0.80;;;;;;;19.62;56.00;97137.75;10449340;28;20136;-21
2022/05/21 14:22:05;;;;;;;1.80;0.70;;;;;;;19.70;56.05;97135.22;10450297;28;20174;-23
2022/05/21 14:27:15;;;;;;;0.68;0.55;;;;;;;19.83;56.39;97127.59;10450220;28;20049;-21
2022/05/21 14:32:15;;;;;;;0.50;0.50;;;;;;;20.14;58.48;97119.19;10482599;28;20028;-22
2022/05/21 14:37:28;;;;;;;1.58;0.82;;;;;;;19.91;57.35;97114.91;10491353;28;20040;-21
2022/05/21 14:42:29;;;;;;;2.03;0.93;;;;;;;19.95;58.03;97093.72;10458365;28;20116;-22
2022/05/21 14:52:50;;;;;;;0.57;0.55;;;;;;;20.09;60.20;97094.63;10458498;28;20044;-21
2022/05/21 14:57:51;;;;;;;1.50;0.82;;;;;;;20.03;57.92;97075.06;10460895;28;20228;-21
2022/05/21 15:02:51;;;;;;;1.20;0.70;;;;;;;19.75;57.25;97075.09;10457654;28;20079;-22
2022/05/21 15:07:55;;;;;;;0.63;0.47;;;;;;;19.77;57.30;97070.88;10492678;28;20037;-21
2022/05/21 15:12:56;;;;;;;0.77;0.45;;;;;;;19.75;57.36;97053.06;10461829;28;20284;-22
2022/05/21 15:17:56;;;;;;;0.75;0.38;;;;;;;20.10;58.47;97038.69;10471390;28;20036;-21
2022/05/21 15:22:57;;;;;;;0.60;0.40;;;;;;;20.28;58.63;97032.72;10497445;28;20036;-21
2022/05/21 15:27:57;;;;;;;1.47;0.60;;;;;;;20.16;58.28;97035.28;10461098;28;20033;-20
2022/05/21 15:32:58;;;;;;;0.90;0.75;;;;;;;19.92;57.52;97027.66;10491449;28;20506;-21
2022/05/21 15:37:58;;;;;;;1.03;0.57;;;;;;;19.85;57.44;97021.72;10456697;28;20410;-21
2022/05/21 15:42:58;;;;;;;0.70;0.70;;;;;;;19.85;57.54;97014.09;10491549;28;20525;-21
2022/05/21 15:47:59;;;;;;;0.60;0.60;;;;;;;19.83;57.63;97000.56;10492235;28;20506;-22
2022/05/21 15:53:00;;;;;;;0.82;0.70;;;;;;;19.97;57.94;96995.47;10455626;28;20510;-22
2022/05/21 15:58:01;;;;;;;1.92;1.58;;;;;;;19.70;57.77;96983.66;10493624;28;20073;-21
2022/05/21 16:03:02;;;;;;;1.60;1.40;;;;;;;19.71;57.83;96980.25;10496379;28;20032;-22
2022/05/21 16:08:03;;;;;;;1.13;1.05;;;;;;;19.79;57.88;96970.06;10455358;28;20112;-22
2022/05/21 16:13:04;;;;;;;1.90;1.10;;;;;;;19.96;58.34;96951.41;10490881;28;20120;-21
2022/05/21 16:18:08;;;;;;;1.92;1.35;;;;;;;20.10;57.68;96959.03;10495799;28;20591;-21
2022/05/21 16:23:10;;;;;;;1.70;1.17;;;;;;;20.03;57.83;96937.00;10454198;28;20518;-23
2022/05/21 16:28:10;;;;;;;1.08;1.00;;;;;;;19.82;57.58;96948.06;10454851;28;20036;-21
2022/05/21 16:33:16;;;;;;;2.13;1.20;;;;;;;19.86;57.19;96933.66;10491251;28;20025;-22
2022/05/21 16:38:16;;;;;;;1.00;0.90;;;;;;;20.06;60.66;96932.78;10454011;28;20044;-22
2022/05/21 16:43:17;;;;;;;0.80;0.70;;;;;;;20.15;59.05;96927.66;10452635;28;20037;-21
2022/05/21 16:48:19;;;;;;;1.23;0.93;;;;;;;19.96;58.65;96926.00;10453068;28;20283;-21
2022/05/21 16:53:19;;;;;;;1.55;0.98;;;;;;;19.86;58.62;96918.41;10454034;28;20090;-21
2022/05/21 16:58:20;;;;;;;1.10;0.90;;;;;;;19.87;58.34;96909.94;10493671;28;20036;-21
2022/05/21 17:03:20;;;;;;;1.60;1.05;;;;;;;19.87;58.52;96905.69;10478005;28;20283;-23
2022/05/21 17:08:20;;;;;;;1.17;0.80;;;;;;;19.85;58.24;96899.75;10451798;28;20044;-23
2022/05/21 17:13:21;;;;;;;0.97;0.90;;;;;;;20.02;58.04;96895.47;10451623;28;20540;-21
2022/05/21 17:18:21;;;;;;;1.93;0.73;;;;;;;19.89;57.99;96892.97;10452851;28;20283;-22
2022/05/21 17:23:22;;;;;;;1.07;0.97;;;;;;;19.76;57.65;96894.69;10452039;28;20305;-22
2022/05/21 17:33:42;;;;;;;1.83;1.10;;;;;;;19.67;58.44;96883.72;10491759;28;20028;-21
2022/05/21 17:38:46;;;;;;;1.17;0.90;;;;;;;19.68;57.64;96873.56;10491693;28;20494;-22
2022/05/21 17:43:47;;;;;;;1.33;0.73;;;;;;;19.62;57.77;96871.03;10451677;28;20033;-22
2022/05/21 17:48:47;;;;;;;1.23;0.70;;;;;;;19.66;58.13;96877.78;10458634;28;20075;-22
2022/05/21 17:53:48;;;;;;;0.73;0.73;;;;;;;19.62;58.67;96870.19;10490826;28;20024;-21
2022/05/21 17:58:50;;;;;;;1.67;0.80;;;;;;;19.61;58.14;96876.94;10451278;28;20287;-21
2022/05/21 18:03:51;;;;;;;0.98;0.80;;;;;;;19.76;57.92;96871.00;10457494;28;20032;-21
2022/05/21 18:08:52;;;;;;;1.55;0.90;;;;;;;19.73;58.32;96868.44;10489596;28;20036;-22
2022/05/21 18:13:52;;;;;;;2.20;0.50;;;;;;;19.64;57.86;96871.03;10449755;28;20037;-21
2022/05/21 18:24:11;;;;;;;0.90;0.70;;;;;;;19.54;58.37;96871.88;10449266;28;20041;-22
2022/05/21 18:29:12;;;;;;;1.42;0.80;;;;;;;19.51;58.34;96869.38;10458895;28;20025;-23
2022/05/21 18:34:13;;;;;;;1.47;0.97;;;;;;;19.52;58.49;96873.59;10482255;28;20039;-22
2022/05/21 18:39:15;;;;;;;1.75;1.00;;;;;;;19.41;58.52;96858.38;10449883;28;20033;-22
2022/05/21 18:44:16;;;;;;;2.67;0.80;;;;;;;19.49;58.63;96863.47;10449700;28;20108;-22
2022/05/21 18:49:16;;;;;;;1.50;1.10;;;;;;;19.47;58.76;96870.22;10450035;28;20746;-21
2022/05/21 18:54:16;;;;;;;1.63;1.20;;;;;;;19.50;58.82;96862.59;10452226;28;20553;-22
2022/05/21 18:59:17;;;;;;;3.53;1.10;;;;;;;19.57;58.62;96861.72;10449420;28;20403;-23
2022/05/21 19:04:17;;;;;;;1.47;1.03;;;;;;;19.54;58.62;96854.13;10448915;28;20033;-21
2022/05/21 19:09:18;;;;;;;2.95;0.88;;;;;;;19.48;58.54;96854.97;10449322;28;20177;-22
2022/05/21 19:14:22;;;;;;;2.22;1.08;;;;;;;19.44;58.63;96857.53;10448810;28;20087;-22
2022/05/21 19:19:22;;;;;;;1.33;0.85;;;;;;;19.38;58.17;96857.53;10473611;28;20032;-22
2022/05/21 19:24:25;;;;;;;1.60;0.70;;;;;;;19.38;58.77;96852.44;10483202;28;20037;-22
2022/05/21 19:29:30;;;;;;;2.08;0.90;;;;;;;19.36;58.78;96866.84;10459896;28;20277;-22
2022/05/21 19:34:31;;;;;;;1.50;0.70;;;;;;;19.32;58.97;96872.75;10495149;28;20039;-22
2022/05/21 19:44:52;;;;;;;1.67;0.68;;;;;;;19.30;59.11;96884.63;10456424;28;20029;-22
2022/05/21 19:49:52;;;;;;;1.40;0.60;;;;;;;19.32;59.18;96875.28;10456199;28;20055;-22
2022/05/21 19:54:52;;;;;;;1.00;0.50;;;;;;;19.43;58.80;96881.22;10468189;28;20299;-23
2022/05/21 19:59:53;;;;;;;1.70;1.00;;;;;;;19.38;58.96;96888.84;10495488;28;20851;-23
2022/05/21 20:04:53;;;;;;;1.33;0.53;;;;;;;19.34;59.25;96904.91;10482471;28;20029;-23
2022/05/21 20:09:54;;;;;;;2.03;0.60;;;;;;;19.28;58.92;96881.25;10466237;28;20290;-23
2022/05/21 20:14:54;;;;;;;2.45;1.10;;;;;;;19.28;58.80;96886.31;10496286;28;20036;-23
2022/05/21 20:19:54;;;;;;;1.93;0.60;;;;;;;19.18;59.03;96877.81;10482191;28;20071;-22
2022/05/21 20:24:55;;;;;;;2.20;0.80;;;;;;;19.22;58.82;96894.78;10454163;28;20400;-24
2022/05/21 20:29:55;;;;;;;1.50;0.90;;;;;;;19.20;59.04;96898.16;10469582;28;20031;-23
2022/05/21 20:34:55;;;;;;;0.97;0.63;;;;;;;19.18;58.89;96899.81;10466656;28;20040;-23
2022/05/21 20:39:56;;;;;;;4.13;1.13;;;;;;;19.22;59.30;96904.06;10453878;28;20033;-23
2022/05/21 20:44:56;;;;;;;1.03;0.90;;;;;;;19.27;58.63;96900.69;10453673;28;20303;-22
2022/05/21 20:49:57;;;;;;;2.08;1.00;;;;;;;19.31;58.53;96904.06;10453780;28;20028;-22
2022/05/21 20:54:58;;;;;;;2.15;0.70;;;;;;;19.22;58.43;96907.47;10455889;28;20029;-22
2022/05/21 20:59:58;;;;;;;1.00;0.73;;;;;;;19.20;58.46;96903.25;10454096;28;20032;-23
2022/05/21 21:04:58;;;;;;;1.27;0.80;;;;;;;19.12;58.77;96899.81;10471864;28;20048;-22
2022/05/21 21:09:59;;;;;;;2.63;0.70;;;;;;;19.11;58.59;96905.75;10483462;28;20124;-22
2022/05/21 21:15:00;;;;;;;1.00;0.93;;;;;;;19.14;58.32;96904.06;10452419;28;20044;-22
2022/05/21 21:20:01;;;;;;;2.77;0.73;;;;;;;19.10;58.31;96894.72;10452818;28;20044;-22
2022/05/21 21:25:02;;;;;;;1.73;0.55;;;;;;;19.07;58.39;96888.81;10463143;28;20310;-23
2022/05/21 21:30:04;;;;;;;1.98;1.15;;;;;;;19.05;58.54;96893.03;10492878;28;20040;-23
2022/05/21 21:35:05;;;;;;;0.75;0.70;;;;;;;19.11;58.13;96898.13;10491495;28;20166;-24
2022/05/21 21:40:06;;;;;;;0.98;0.68;;;;;;;19.14;58.20;96893.03;10480110;28;20614;-22
2022/05/21 21:45:09;;;;;;;1.65;0.95;;;;;;;19.22;57.89;96887.16;10450815;28;20120;-22
2022/05/21 21:50:10;;;;;;;1.60;1.10;;;;;;;19.15;57.98;96899.81;10451026;28;20416;-22
2022/05/21 21:55:11;;;;;;;1.25;1.05;;;;;;;19.10;57.93;96894.72;10452683;28;20116;-22
2022/05/21 22:06:13;;;;;;;4.63;1.10;;;;;;;19.07;57.83;96898.97;10484317;28;20366;-23
2022/05/21 22:11:14;;;;;;;2.78;1.05;;;;;;;19.08;57.89;96893.06;10469592;28;20025;-23
2022/05/21 22:16:15;;;;;;;5.13;1.35;;;;;;;19.17;57.73;96898.97;10450348;28;20491;-22
2022/05/21 22:21:16;;;;;;;3.35;1.20;;;;;;;19.12;57.89;96909.97;10450163;28;20036;-22
2022/05/21 22:26:17;;;;;;;1.45;1.30;;;;;;;19.01;58.15;96902.34;10471294;28;20039;-23
2022/05/21 22:31:18;;;;;;;1.27;0.90;;;;;;;19.04;57.80;96899.81;10491565;28;20036;-21
2022/05/21 22:36:18;;;;;;;0.93;0.90;;;;;;;19.13;57.55;96896.44;10460387;28;20033;-21
2022/05/21 22:41:19;;;;;;;2.43;1.20;;;;;;;19.15;57.34;96895.59;10471949;28;20403;-21
2022/05/21 22:46:19;;;;;;;2.95;1.77;;;;;;;19.11;57.23;96887.97;10491501;28;20279;-22
2022/05/21 22:51:25;;;;;;;2.43;1.53;;;;;;;19.01;57.41;96866.81;10452665;28;20082;-23
2022/05/21 22:56:26;;;;;;;1.90;1.42;;;;;;;18.99;57.30;96855.00;10474582;28;20326;-22
2022/05/21 23:01:27;;;;;;;2.05;1.08;;;;;;;18.96;57.28;96852.44;10490911;28;20108;-23
2022/05/21 23:06:27;;;;;;;2.38;1.40;;;;;;;18.99;57.21;96853.28;10463619;28;20037;-22
2022/05/21 23:11:27;;;;;;;1.40;1.00;;;;;;;18.95;57.22;96860.91;10457381;28;20033;-23
2022/05/21 23:27:06;;;;;;;2.65;1.42;;;;;;;18.94;57.07;96849.06;10485385;28;20097;-23
2022/05/21 23:32:07;;;;;;;1.67;1.20;;;;;;;18.98;56.94;96849.06;10498411;28;20034;-23
2022/05/21 23:37:10;;;;;;;1.95;1.13;;;;;;;19.02;56.92;96842.31;10466655;28;20399;-22
2022/05/21 23:42:11;;;;;;;3.83;1.30;;;;;;;18.95;56.68;96830.47;10456420;28;20037;-24
2022/05/21 23:47:12;;;;;;;1.88;0.95;;;;;;;18.92;56.66;96825.41;10455731;28;20056;-21
2022/05/21 23:52:16;;;;;;;1.80;0.98;;;;;;;18.94;56.53;96811.00;10455934;28;20486;-23
2022/05/21 23:57:17;;;;;;;4.00;1.20;;;;;;;19.01;56.59;96815.25;10458120;28;20051;-23
